Time,TemperatureF,DewpointF,PressureIn,WindDirection,WindDirectionDegrees,WindSpeedMPH,WindSpeedGustMPH,Humidity,HourlyPrecipIn,Conditions,Clouds,dailyrainin,SoftwareType,DateUTC
2013-06-26 00:07:00,68.3,66.0,29.84,SSW,199,3.0,7.0,93,0.00,,,0.00,weatherlink.com 1.10,2013-06-26 04:07:00,
2013-06-26 00:22:00,68.4,66.0,29.83,SSW,196,5.0,9.0,92,0.02,,,0.02,weatherlink.com 1.10,2013-06-26 04:22:00,
2013-06-26 00:38:00,68.0,66.0,29.84,SW,236,2.0,9.0,94,0.04,,,0.04,weatherlink.com 1.10,2013-06-26 04:38:00,
2013-06-26 00:53:00,68.0,66.0,29.86,SW,233,8.0,11.0,94,0.07,,,0.07,weatherlink.com 1.10,2013-06-26 04:53:00,
2013-06-26 01:08:00,68.0,66.0,29.84,WSW,238,3.0,11.0,94,0.11,,,0.11,weatherlink.com 1.10,2013-06-26 05:08:00,
2013-06-26 01:23:00,67.7,66.0,29.83,WSW,241,3.0,9.0,95,0.12,,,0.15,weatherlink.com 1.10,2013-06-26 05:23:00,
2013-06-26 01:38:00,67.4,66.0,29.78,SE,128,3.0,11.0,94,0.15,,,0.19,weatherlink.com 1.10,2013-06-26 05:38:00,
2013-06-26 01:53:00,67.1,65.0,29.81,SW,223,4.0,6.0,94,0.15,,,0.23,weatherlink.com 1.10,2013-06-26 05:53:00,
2013-06-26 02:08:00,66.7,65.0,29.82,SSW,213,2.0,6.0,95,0.12,,,0.23,weatherlink.com 1.10,2013-06-26 06:08:00,
2013-06-26 02:23:00,66.3,65.0,29.85,SW,219,0.0,21.0,94,0.36,,,0.51,weatherlink.com 1.10,2013-06-26 06:23:00,
2013-06-26 02:38:00,65.8,64.0,29.83,West,271,1.0,12.0,95,0.38,,,0.58,weatherlink.com 1.10,2013-06-26 06:38:00,
2013-06-26 02:53:00,65.7,65.0,29.81,SSW,205,2.0,6.0,96,0.36,,,0.59,weatherlink.com 1.10,2013-06-26 06:53:00,
2013-06-26 03:08:00,65.6,65.0,29.80,South,188,4.0,5.0,96,0.36,,,0.59,weatherlink.com 1.10,2013-06-26 07:08:00,
2013-06-26 03:23:00,65.7,65.0,29.80,SSE,163,4.0,7.0,96,0.08,,,0.59,weatherlink.com 1.10,2013-06-26 07:23:00,
2013-06-26 03:38:00,65.9,65.0,29.81,SSW,198,5.0,10.0,96,0.01,,,0.59,weatherlink.com 1.10,2013-06-26 07:38:00,
2013-06-26 03:53:00,66.1,65.0,29.81,SW,234,2.0,12.0,95,0.00,,,0.59,weatherlink.com 1.10,2013-06-26 07:53:00,
2013-06-26 04:08:00,66.3,65.0,29.82,South,183,2.0,9.0,96,0.00,,,0.59,weatherlink.com 1.10,2013-06-26 08:08:00,
2013-06-26 04:23:00,66.4,65.0,29.82,SSW,211,1.0,7.0,96,0.00,,,0.59,weatherlink.com 1.10,2013-06-26 08:23:00,
2013-06-26 04:38:00,66.4,65.0,29.82,South,183,2.0,5.0,96,0.00,,,0.59,weatherlink.com 1.10,2013-06-26 08:38:00,
2013-06-26 04:53:00,66.5,65.0,29.82,SSW,197,3.0,5.0,96,0.00,,,0.59,weatherlink.com 1.10,2013-06-26 08:53:00,
2013-06-26 05:08:00,66.5,65.0,29.82,SSW,200,0.0,5.0,96,0.00,,,0.59,weatherlink.com 1.10,2013-06-26 09:08:00,
2013-06-26 05:23:00,66.5,65.0,29.83,SSW,200,1.0,5.0,96,0.00,,,0.59,weatherlink.com 1.10,2013-06-26 09:23:00,
2013-06-26 05:38:00,66.5,65.0,29.82,SSW,200,0.0,2.0,96,0.00,,,0.59,weatherlink.com 1.10,2013-06-26 09:38:00,
2013-06-26 05:53:00,66.4,65.0,29.82,South,185,0.0,3.0,96,0.00,,,0.59,weatherlink.com 1.10,2013-06-26 09:53:00,
2013-06-26 06:08:00,66.4,65.0,29.82,South,185,0.0,2.0,96,0.00,,,0.59,weatherlink.com 1.10,2013-06-26 10:08:00,
2013-06-26 06:23:00,66.5,65.0,29.82,South,186,0.0,0.0,96,0.00,,,0.59,weatherlink.com 1.10,2013-06-26 10:23:00,
2013-06-26 06:38:00,66.7,66.0,29.82,South,186,0.0,2.0,96,0.00,,,0.59,weatherlink.com 1.10,2013-06-26 10:38:00,
2013-06-26 06:53:00,66.9,66.0,29.81,South,186,1.0,2.0,96,0.00,,,0.59,weatherlink.com 1.10,2013-06-26 10:53:00,
2013-06-26 07:08:00,67.1,66.0,29.81,South,186,3.0,4.0,96,0.00,,,0.59,weatherlink.com 1.10,2013-06-26 11:08:00,
2013-06-26 07:23:00,67.5,66.0,29.81,South,189,5.0,5.0,95,0.00,,,0.59,weatherlink.com 1.10,2013-06-26 11:23:00,
2013-06-26 07:38:00,68.2,67.0,29.80,SSW,208,2.0,7.0,94,0.00,,,0.59,weatherlink.com 1.10,2013-06-26 11:38:00,
2013-06-26 07:53:00,68.6,67.0,29.80,SSW,195,1.0,7.0,94,0.00,,,0.59,weatherlink.com 1.10,2013-06-26 11:53:00,
2013-06-26 08:08:00,68.6,67.0,29.82,SW,219,4.0,6.0,94,0.00,,,0.59,weatherlink.com 1.10,2013-06-26 12:08:00,
2013-06-26 08:23:00,69.2,68.0,29.82,SSW,194,1.0,5.0,94,0.00,,,0.59,weatherlink.com 1.10,2013-06-26 12:23:00,
2013-06-26 08:38:00,70.5,68.0,29.83,SSW,204,5.0,7.0,90,0.00,,,0.59,weatherlink.com 1.10,2013-06-26 12:38:00,
2013-06-26 08:53:00,70.4,67.0,29.83,SSW,212,2.0,5.0,90,0.00,,,0.59,weatherlink.com 1.10,2013-06-26 12:53:00,
2013-06-26 09:08:00,70.2,68.0,29.84,SW,226,2.0,5.0,91,0.00,,,0.59,weatherlink.com 1.10,2013-06-26 13:08:00,
2013-06-26 09:23:00,70.1,67.0,29.84,SW,219,2.0,7.0,90,0.00,,,0.59,weatherlink.com 1.10,2013-06-26 13:23:00,
2013-06-26 09:38:00,69.8,67.0,29.84,WSW,252,2.0,5.0,91,0.00,,,0.59,weatherlink.com 1.10,2013-06-26 13:38:00,
2013-06-26 09:53:00,69.7,67.0,29.84,SSW,210,1.0,4.0,90,0.00,,,0.59,weatherlink.com 1.10,2013-06-26 13:53:00,
2013-06-26 10:08:00,69.9,67.0,29.84,SW,225,3.0,5.0,90,0.00,,,0.59,weatherlink.com 1.10,2013-06-26 14:08:00,
2013-06-26 10:23:00,70.5,67.0,29.84,SSW,210,2.0,6.0,89,0.00,,,0.59,weatherlink.com 1.10,2013-06-26 14:23:00,
2013-06-26 10:38:00,71.4,68.0,29.84,West,273,1.0,5.0,88,0.00,,,0.59,weatherlink.com 1.10,2013-06-26 14:38:00,
2013-06-26 10:53:00,72.2,68.0,29.84,SW,232,2.0,5.0,87,0.00,,,0.59,weatherlink.com 1.10,2013-06-26 14:53:00,
2013-06-26 11:08:00,74.0,69.0,29.84,West,267,5.0,8.0,84,0.00,,,0.59,weatherlink.com 1.10,2013-06-26 15:08:00,
2013-06-26 11:23:00,75.7,69.0,29.84,SW,234,3.0,9.0,79,0.00,,,0.59,weatherlink.com 1.10,2013-06-26 15:23:00,
2013-06-26 11:38:00,76.0,68.0,29.83,SW,217,3.0,10.0,77,0.00,,,0.59,weatherlink.com 1.10,2013-06-26 15:38:00,
2013-06-26 11:53:00,76.7,67.0,29.84,NNW,342,7.0,11.0,72,0.00,,,0.59,weatherlink.com 1.10,2013-06-26 15:53:00,
2013-06-26 12:08:00,77.7,68.0,29.84,West,272,7.0,11.0,71,0.00,,,0.59,weatherlink.com 1.10,2013-06-26 16:08:00,
2013-06-26 12:24:00,76.9,68.0,29.84,WNW,285,4.0,8.0,73,0.00,,,0.59,weatherlink.com 1.10,2013-06-26 16:24:00,
2013-06-26 12:39:00,77.3,68.0,29.85,SW,226,6.0,17.0,72,0.00,,,0.59,weatherlink.com 1.10,2013-06-26 16:39:00,
2013-06-26 12:54:00,76.8,67.0,29.84,WSW,250,4.0,16.0,71,0.00,,,0.59,weatherlink.com 1.10,2013-06-26 16:54:00,
2013-06-26 13:09:00,78.3,67.0,29.84,West,263,5.0,13.0,69,0.00,,,0.59,weatherlink.com 1.10,2013-06-26 17:09:00,
2013-06-26 13:24:00,77.6,67.0,29.84,WNW,290,7.0,14.0,70,0.00,,,0.59,weatherlink.com 1.10,2013-06-26 17:24:00,
2013-06-26 13:39:00,77.9,68.0,29.84,West,263,9.0,13.0,71,0.00,,,0.59,weatherlink.com 1.10,2013-06-26 17:39:00,
2013-06-26 13:54:00,77.3,67.0,29.84,WNW,291,10.0,15.0,70,0.00,,,0.59,weatherlink.com 1.10,2013-06-26 17:54:00,
2013-06-26 14:09:00,77.6,68.0,29.83,WNW,303,9.0,13.0,71,0.00,,,0.59,weatherlink.com 1.10,2013-06-26 18:09:00,
2013-06-26 14:24:00,78.1,68.0,29.83,WNW,284,4.0,14.0,70,0.00,,,0.59,weatherlink.com 1.10,2013-06-26 18:24:00,
2013-06-26 14:39:00,78.2,68.0,29.83,WNW,296,5.0,13.0,70,0.00,,,0.59,weatherlink.com 1.10,2013-06-26 18:39:00,
2013-06-26 14:54:00,78.2,68.0,29.83,West,278,2.0,15.0,70,0.00,,,0.59,weatherlink.com 1.10,2013-06-26 18:54:00,
2013-06-26 15:09:00,78.8,68.0,29.82,West,261,6.0,14.0,69,0.00,,,0.59,weatherlink.com 1.10,2013-06-26 19:09:00,
2013-06-26 15:24:00,78.9,68.0,29.82,West,270,3.0,10.0,70,0.00,,,0.59,weatherlink.com 1.10,2013-06-26 19:24:00,
2013-06-26 15:39:00,79.4,68.0,29.82,NW,317,2.0,11.0,68,0.00,,,0.59,weatherlink.com 1.10,2013-06-26 19:39:00,
2013-06-26 15:54:00,79.2,68.0,29.82,West,275,1.0,8.0,69,0.00,,,0.59,weatherlink.com 1.10,2013-06-26 19:54:00,
2013-06-26 16:09:00,78.8,68.0,29.81,WSW,242,2.0,10.0,70,0.00,,,0.59,weatherlink.com 1.10,2013-06-26 20:09:00,
2013-06-26 16:24:00,79.8,68.0,29.80,WNW,288,3.0,7.0,68,0.00,,,0.59,weatherlink.com 1.10,2013-06-26 20:24:00,
2013-06-26 16:39:00,79.3,67.0,29.81,WNW,288,7.0,8.0,67,0.00,,,0.59,weatherlink.com 1.10,2013-06-26 20:39:00,
2013-06-26 16:54:00,79.0,68.0,29.80,NW,306,3.0,8.0,68,0.00,,,0.59,weatherlink.com 1.10,2013-06-26 20:54:00,
2013-06-26 17:09:00,78.9,68.0,29.80,West,271,1.0,8.0,69,0.00,,,0.59,weatherlink.com 1.10,2013-06-26 21:09:00,
2013-06-26 17:24:00,79.0,67.0,29.79,WNW,303,2.0,7.0,67,0.00,,,0.59,weatherlink.com 1.10,2013-06-26 21:24:00,
2013-06-26 17:39:00,79.1,68.0,29.79,NNW,335,2.0,5.0,68,0.00,,,0.59,weatherlink.com 1.10,2013-06-26 21:39:00,
2013-06-26 17:54:00,78.9,67.0,29.78,NNW,340,3.0,5.0,66,0.00,,,0.59,weatherlink.com 1.10,2013-06-26 21:54:00,
2013-06-26 18:09:00,80.0,67.0,29.77,WNW,292,2.0,6.0,65,0.00,,,0.59,weatherlink.com 1.10,2013-06-26 22:09:00,
2013-06-26 18:24:00,79.8,67.0,29.77,West,265,0.0,5.0,65,0.00,,,0.59,weatherlink.com 1.10,2013-06-26 22:24:00,
2013-06-26 18:39:00,79.7,67.0,29.77,West,271,4.0,5.0,65,0.00,,,0.59,weatherlink.com 1.10,2013-06-26 22:39:00,
2013-06-26 18:54:00,79.5,66.0,29.77,West,277,2.0,5.0,64,0.00,,,0.59,weatherlink.com 1.10,2013-06-26 22:54:00,
2013-06-26 19:09:00,79.6,66.0,29.77,NNW,348,0.0,4.0,63,0.00,,,0.59,weatherlink.com 1.10,2013-06-26 23:09:00,
2013-06-26 19:24:00,79.4,66.0,29.76,West,263,1.0,4.0,64,0.00,,,0.59,weatherlink.com 1.10,2013-06-26 23:24:00,
2013-06-26 19:39:00,79.1,66.0,29.76,NNE,19,1.0,3.0,64,0.00,,,0.59,weatherlink.com 1.10,2013-06-26 23:39:00,
2013-06-26 19:54:00,79.2,66.0,29.76,NNE,19,0.0,2.0,64,0.00,,,0.59,weatherlink.com 1.10,2013-06-26 23:54:00,
2013-06-26 20:09:00,78.0,66.0,29.76,North,355,0.0,1.0,66,0.00,,,0.59,weatherlink.com 1.10,2013-06-27 00:09:00,
2013-06-26 20:24:00,77.1,66.0,29.76,NNW,346,1.0,2.0,68,0.00,,,0.59,weatherlink.com 1.10,2013-06-27 00:24:00,
2013-06-26 20:39:00,76.2,67.0,29.76,NNW,346,0.0,0.0,73,0.00,,,0.59,weatherlink.com 1.10,2013-06-27 00:39:00,
2013-06-26 20:55:00,74.0,66.0,29.76,NNW,346,0.0,0.0,77,0.00,,,0.59,weatherlink.com 1.10,2013-06-27 00:55:00,
2013-06-26 21:09:00,73.0,68.0,29.76,NNW,346,0.0,0.0,83,0.00,,,0.59,weatherlink.com 1.10,2013-06-27 01:09:00,
2013-06-26 21:24:00,72.0,68.0,29.77,NNW,346,0.0,0.0,86,0.00,,,0.59,weatherlink.com 1.10,2013-06-27 01:24:00,
2013-06-26 21:39:00,70.7,67.0,29.77,NNW,346,0.0,0.0,88,0.00,,,0.59,weatherlink.com 1.10,2013-06-27 01:39:00,
2013-06-26 21:54:00,69.7,67.0,29.77,NNW,346,0.0,1.0,90,0.00,,,0.59,weatherlink.com 1.10,2013-06-27 01:54:00,
2013-06-26 22:09:00,69.3,67.0,29.77,West,281,0.0,2.0,92,0.00,,,0.59,weatherlink.com 1.10,2013-06-27 02:09:00,
2013-06-26 22:24:00,69.2,67.0,29.77,West,269,0.0,1.0,92,0.00,,,0.59,weatherlink.com 1.10,2013-06-27 02:24:00,
2013-06-26 22:39:00,68.6,66.0,29.77,West,269,0.0,0.0,92,0.00,,,0.59,weatherlink.com 1.10,2013-06-27 02:39:00,
2013-06-26 22:54:00,68.2,66.0,29.77,West,269,0.0,0.0,93,0.00,,,0.59,weatherlink.com 1.10,2013-06-27 02:54:00,
2013-06-26 23:09:00,67.8,66.0,29.76,West,269,0.0,1.0,93,0.00,,,0.59,weatherlink.com 1.10,2013-06-27 03:09:00,
2013-06-26 23:24:00,67.9,67.0,29.77,West,269,0.0,0.0,95,0.00,,,0.59,weatherlink.com 1.10,2013-06-27 03:24:00,
2013-06-26 23:39:00,67.9,67.0,29.76,West,269,0.0,0.0,95,0.00,,,0.59,weatherlink.com 1.10,2013-06-27 03:39:00,
2013-06-26 23:54:00,67.2,66.0,29.76,West,269,0.0,2.0,94,0.00,,,0.59,weatherlink.com 1.10,2013-06-27 03:54:00,